Airfield :
LOGIN :

Register | Disclaimer

   EN    FR    IT 

 










Legend :    VFR   Marginal VFR   IFR   Intensive IFR   Very Intensive IFR
Visi :
Ceiling :
>= 8 km
>= 3000ft
5 to 8 km
1000 to 3000 ft
1500m to 5 km
500 to 1000 ft
800 to 1500m
200 to 500 ft
< 800m
< 200 ft
Symbols :   Thunderstorms  Fog  Heavy snow  Heavy precipitations  Wind > 20 kt
SIGMETs :     Misc.  Thunderstorms  Icing  Turbulence  Mountain Waves  Volcanic Ashes







- Airport Elevation : 935 ft


EBFS - Florennes

CURRENT METAR :
  • 222325Z AUTO 26008KT 9999 FEW026/// 14/12 Q1016 BLU

EXPIRED METARs :
  • 222255Z AUTO 25007KT 9999 NCD 15/12 Q1015 BLU
  • 222225Z AUTO 25007KT 9999 NCD 15/12 Q1016 BLU
  • 222155Z AUTO 26005KT 9999 NCD 15/11 Q1016 BLU
  • 222125Z AUTO 28008KT 9999 NCD 16/11 Q1015 BLU
  • 222055Z AUTO 28009KT 9999 NCD 17/11 Q1015 BLU

Expired Forecast.
No reported NOTAMs for that airfield.



MET'MAP, your aeronautical weather chart ! - Copyright ORBIFLY December 2007 - Disclaimer

ORBIFLY MET'MAP TEAM :

Programming & Development : Alexandra Zaïnal
Concept & Development : Baudouin d'Aumeries
Co-Development & Prog : Marc-Olivier Méhu
Technical & hardware support : Manuel Goepfert

Contact : metmap@orbifly.com




SOURCES & CREDITS :

   NOAA